Flight Track Log - Related Links

Times and Time Zones

All times are in EDT time to prevent confusion due to time zone crossing. See the N9058S flight status page for this flight to view local times or setup timezone preferences in your user account.

Time Position Orientation Groundspeed Altitude Reporting Facility
EDT Latitude Longitude Course Direction KTS MPH feet Rate Location/Type
Sun 10:50:00 AM 37.4930 -79.7033 97° East  Level Estimated
Sun 10:51:00 AM 37.5208 -79.6579 77° East  Level Estimated
Sun 10:52:00 AM 37.5040 -79.6045 112° Southeast  Level FlightAware Approximate
Sun 10:53:00 AM 37.4871 -79.5512 112° Southeast  Level FlightAware Approximate
Sun 10:54:00 AM 37.4702 -79.4978 112° Southeast  Level FlightAware Approximate
Sun 10:55:00 AM 37.4533 -79.4445 112° Southeast  Level FlightAware Approximate
Sun 10:56:00 AM 37.4822 -79.4002 78° East  Level Estimated
Sun 10:57:00 AM 37.4694 -79.3451 106° East  Level FlightAware Approximate
Sun 10:58:00 AM 37.4566 -79.2900 106° East  Level FlightAware Approximate
Sun 10:59:00 AM 37.4861 -79.2463 67° East  Level Estimated
Sun 10:59:07 AM 37.2178 -79.2769 76° East 171 197 6,900  Level Washington Center
Sun 11:00:00 AM 37.5156 -79.2025 76° East  Level Estimated
Sun 11:00:05 AM 37.2361 -79.2181 69° East 171 197 6,900  Level Washington Center
Sun 11:01:00 AM 37.5045 -79.1468 104° East  Level FlightAware Approximate
Sun 11:02:00 AM 37.4933 -79.0911 104° East  Level FlightAware Approximate
Sun 11:02:06 AM 37.2789 -79.1131 63° Northeast 171 197 6,900  Level Washington Center
Sun 11:03:00 AM 37.5233 -79.0479 76° East  Level Estimated
Sun 11:03:06 AM 37.2972 -79.0617 66° East 171 197 6,900  Level Washington Center
Sun 11:04:07 AM 37.3133 -79.0100 69° East 171 197 6,900  Level Washington Center
Sun 11:05:05 AM 37.3314 -78.9586 66° East 171 197 6,900  Level Washington Center
Sun 11:06:06 AM 37.3475 -78.9044 69° East 171 197 6,900  Level Washington Center
Sun 11:07:07 AM 37.3658 -78.8453 69° East 171 197 6,900  Level Washington Center
Sun 11:08:07 AM 37.3839 -78.7886 68° East 171 197 6,900  Level Washington Center
Sun 11:09:05 AM 37.4022 -78.7344 67° East 171 197 6,900  Level Washington Center
Sun 11:10:05 AM 37.4200 -78.6828 67° East 171 197 6,900  Level Washington Center
Sun 11:11:06 AM 37.4361 -78.6336 68° East 171 197 6,900  Level Washington Center
Sun 11:12:07 AM 37.4519 -78.5794 70° East 166 191 6,900  Level Washington Center
Sun 11:13:07 AM 37.4678 -78.5250 70° East 166 191 6,900  Level Washington Center
Sun 11:14:07 AM 37.4839 -78.4708 69° East 166 191 6,900 51 Level Washington Center
Sun 11:15:05 AM 37.4997 -78.4111 72° East 166 191 7,000  Climbing Washington Center
Sun 11:16:06 AM 37.5156 -78.3619 68° East 160 184 6,900 -49 Descending Washington Center
Sun 11:17:07 AM 37.5336 -78.3075 67° East 160 184 6,900  Level Washington Center
Sun 11:18:07 AM 37.5492 -78.2558 69° East 160 184 6,900  Level Washington Center
Sun 11:19:05 AM 37.5669 -78.2092 64° Northeast 160 184 6,900  Level Washington Center
Sun 11:20:06 AM 37.5786 -78.1519 76° East 155 178 6,900  Level Washington Center
Sun 11:21:07 AM 37.5944 -78.1000 69° East 155 178 6,900  Level Washington Center
Sun 11:22:05 AM 37.6100 -78.0481 69° East 160 184 6,900  Level Washington Center
Sun 11:23:06 AM 37.6278 -77.9964 67° East 160 184 6,900  Level Washington Center
Sun 11:24:53 AM 37.6667 -77.9000 63° Northeast 168 193 6,900  Level Potomac TRACON
Sun 11:25:53 AM 37.6833 -77.8333 72° East 166 191 6,900  Level Potomac TRACON
Sun 11:26:47 AM 37.6833 -77.8000 90° East 165 190 6,900  Level Potomac TRACON
Sun 11:27:47 AM 37.7000 -77.7333 72° East 168 193 6,900  Level Potomac TRACON
Sun 11:28:47 AM 37.7333 -77.6833 50° Northeast 168 193 6,900  Level Potomac TRACON
Sun 11:29:47 AM 37.7500 -77.6333 67° East 164 189 6,900  Level Potomac TRACON
Sun 11:30:42 AM 37.7500 -77.5833 90° East 168 193 6,900  Level Potomac TRACON
Sun 11:31:42 AM 37.7667 -77.5333 67° East 170 196 6,900  Level Potomac TRACON
Sun 11:32:42 AM 37.7833 -77.4667 72° East 164 189 6,900  Level Potomac TRACON
Sun 11:33:42 AM 37.8000 -77.4167 67° East 176 203 6,900  Level Potomac TRACON
Sun 11:34:36 AM 37.8167 -77.3833 58° Northeast 165 190 6,900  Level Potomac TRACON
Sun 11:35:36 AM 37.8333 -77.3167 72° East 164 189 6,900  Level Potomac TRACON
Sun 11:36:36 AM 37.8500 -77.2667 67° East 161 185 6,900  Level Potomac TRACON
Sun 11:37:42 AM 37.8667 -77.2167 67° East 167 192 6,900  Level Potomac TRACON
Sun 11:38:42 AM 37.8833 -77.1667 67° East 164 189 6,900  Level Potomac TRACON
Sun 11:39:42 AM 37.9000 -77.1000 72° East 163 188 6,900  Level Potomac TRACON
Sun 11:40:36 AM 37.9167 -77.0667 58° Northeast 154 177 6,900  Level Potomac TRACON
Sun 11:41:25 AM 37.9228 -77.0292 78° East 155 178 6,900  Level Washington Center
Sun 11:42:26 AM 37.9400 -76.9742 68° East 154 177 6,900  Level Washington Center
Sun 11:43:26 AM 37.9531 -76.9244 72° East 157 181 6,900  Level Washington Center
Sun 11:44:27 AM 37.9683 -76.8692 71° East 158 182 6,900  Level Washington Center
Sun 11:45:27 AM 37.9897 -76.8222 60° Northeast 164 189 6,900  Level Washington Center
Sun 11:46:23 AM 38.0192 -76.7858 44° Northeast 166 191 6,900  Level Washington Center
Sun 11:47:23 AM 38.0531 -76.7414 46° Northeast 165 190 6,900  Level Washington Center
Sun 11:48:22 AM 38.0825 -76.6997 48° Northeast 163 188 6,900  Level Washington Center
Sun 11:49:22 AM 38.1142 -76.6581 46° Northeast 162 186 6,900  Level Washington Center
Sun 11:50:23 AM 38.1439 -76.6189 46° Northeast 161 185 6,900  Level Washington Center
Sun 11:51:24 AM 38.1756 -76.5717 50° Northeast 162 186 6,900  Level Washington Center
Sun 11:52:24 AM 38.2050 -76.5272 50° Northeast 164 189 6,900  Level Washington Center
Sun 11:53:25 AM 38.2367 -76.4878 44° Northeast 166 191 6,900  Level Washington Center
Sun 11:54:31 AM 38.2744 -76.4381 46° Northeast 165 190 6,900  Level Washington Center
Sun 11:55:32 AM 38.3039 -76.3933 50° Northeast 165 190 6,900  Level Washington Center
Sun 11:56:33 AM 38.3439 -76.3567 36° Northeast 175 201 6,900  Level Washington Center
Sun 11:57:28 AM 38.3817 -76.3253 33° Northeast 172 198 6,900  Level Washington Center
Sun 11:58:28 AM 38.4192 -76.2914 35° Northeast 174 200 6,900  Level Washington Center
Sun 12:00:09 PM 38.4833 -76.2333 35° Northeast 176 203 6,900  Level Potomac TRACON
Sun 12:01:09 PM 38.5333 -76.1833 38° Northeast 184 212 6,900  Level Potomac TRACON
Sun 12:01:57 PM 38.5667 -76.1500 38° Northeast 175 201 6,900  Level Potomac TRACON
Sun 12:02:52 PM 38.6000 -76.1333 21° North 177 204 6,900  Level Potomac TRACON
Sun 12:03:52 PM 38.6333 -76.1000 38° Northeast 171 197 6,900  Level Potomac TRACON
Sun 12:04:46 PM 38.6667 -76.0667 38° Northeast 170 196 6,900  Level Potomac TRACON
Sun 12:05:46 PM 38.7167 -76.0333 27° Northeast 167 192 6,900  Level Potomac TRACON
Sun 12:06:46 PM 38.7500 -76.0000 38° Northeast 166 191 6,900  Level Potomac TRACON
Sun 12:07:52 PM 38.7833 -75.9500 49° Northeast 166 191 6,900  Level Potomac TRACON
Sun 12:08:52 PM 38.8333 -75.9167 27° Northeast 166 191 6,900 -113 Level Potomac TRACON
Sun 12:10:00 PM 38.8623 -75.8543 38° Northeast  Level FlightAware Approximate
Sun 12:15:52 PM 39.1000 -75.6667 349° North 194 223 6,000  Level Philadelphia TRACON
Sun 12:16:16 PM 39.1167 -75.6667 360° North 188 216 5,800 -706 Descending Philadelphia TRACON
Sun 12:17:00 PM 39.1093 -75.6075 38° Northeast  Level FlightAware Approximate
Sun 12:17:17 PM 39.1833 -75.6833 349° North 194 223 5,000  Level Philadelphia TRACON
Sun 12:18:00 PM 39.1446 -75.5722 38° Northeast  Level FlightAware Approximate
Sun 12:18:17 PM 39.2333 -75.6667 14° North 180 207 4,900  Level Philadelphia TRACON
Sun 12:19:00 PM 39.1799 -75.5369 38° Northeast  Level FlightAware Approximate
Sun 12:19:17 PM 39.2833 -75.6667 360° North 173 199 5,000  Level Philadelphia TRACON
Sun 12:20:00 PM 39.2151 -75.5015 38° Northeast  Level FlightAware Approximate
Sun 12:20:17 PM 39.3333 -75.6667 360° North 182 209 4,900  Level Philadelphia TRACON
Sun 12:21:00 PM 39.2586 -75.5105 349° North  Level FlightAware Approximate
Sun 12:21:17 PM 39.3667 -75.6833 339° North 175 201 4,900  Level Philadelphia TRACON
Sun 12:22:17 PM 39.4167 -75.7000 346° North 174 200 4,900  Level Philadelphia TRACON
Sun 12:23:17 PM 39.4667 -75.7167 346° North 176 203 4,900 50 Level Philadelphia TRACON
Sun 12:24:17 PM 39.5167 -75.7333 346° North 169 194 5,000 50 Climbing Philadelphia TRACON
Sun 12:25:18 PM 39.5667 -75.7500 346° North 175 201 5,000 -50 Level Philadelphia TRACON
Sun 12:26:18 PM 39.6000 -75.7667 339° North 171 197 4,900 -50 Descending Philadelphia TRACON
Sun 12:27:18 PM 39.6500 -75.7833 346° North 170 196 4,900  Level Philadelphia TRACON
Sun 12:28:18 PM 39.7000 -75.8000 346° North 171 197 4,900  Level Philadelphia TRACON
Sun 12:29:18 PM 39.7500 -75.8167 346° North 169 194 4,900  Level Philadelphia TRACON
Sun 12:30:18 PM 39.7833 -75.8000 21° North 163 188 4,900  Level Philadelphia TRACON
Sun 12:31:18 PM 39.8333 -75.7667 27° Northeast 165 190 4,900  Level Philadelphia TRACON
Sun 12:32:18 PM 39.8667 -75.7500 21° North 164 189 4,900 50 Level Philadelphia TRACON
Sun 12:33:18 PM 39.9167 -75.7333 14° North 166 191 5,000  Climbing Philadelphia TRACON
Sun 12:34:18 PM 39.9333 -75.6667 72° East 164 189 4,900 -50 Descending Philadelphia TRACON
Sun 12:35:18 PM 39.9500 -75.6333 57° Northeast 158 182 4,900 50 Level Philadelphia TRACON
Sun 12:36:18 PM 39.9833 -75.5667 57° Northeast 160 184 5,000  Climbing Philadelphia TRACON
Sun 12:37:18 PM 40.0000 -75.5333 57° Northeast 161 185 4,900 -50 Descending Philadelphia TRACON
Sun 12:38:19 PM 40.0167 -75.4833 66° East 160 184 4,900  Level Philadelphia TRACON
Sun 12:39:19 PM 40.0500 -75.4333 49° Northeast 162 186 4,900  Level Philadelphia TRACON
Sun 12:40:19 PM 40.0667 -75.3833 66° East 163 188 4,900  Level Philadelphia TRACON
Sun 12:41:19 PM 40.0833 -75.3167 72° East 163 188 4,900 -100 Level Philadelphia TRACON
Sun 12:42:19 PM 40.1000 -75.2667 66° East 159 183 4,700 -400 Descending Philadelphia TRACON
Sun 12:43:19 PM 40.1333 -75.2167 49° Northeast 163 188 4,100 -550 Descending Philadelphia TRACON
Sun 12:44:19 PM 40.1500 -75.1667 66° East 161 185 3,600 -500 Descending Philadelphia TRACON
Sun 12:45:19 PM 40.1667 -75.1167 66° East 146 168 3,100 -350 Descending Philadelphia TRACON
Sun 12:46:19 PM 40.1833 -75.0667 66° East 141 162 2,900 -300 Descending Philadelphia TRACON
Sun 12:47:19 PM 40.1833 -75.0167 90° East 135 155 2,500 -450 Descending Philadelphia TRACON
Sun 12:48:19 PM 40.2000 -74.9667 66° East 139 160 2,000 -350 Descending Philadelphia TRACON
Sun 12:49:19 PM 40.2167 -74.9333 57° Northeast 125 144 1,800 -347 Descending Philadelphia TRACON
Sun 12:50:20 PM 40.2333 -74.9000 57° Northeast 110 127 1,300 -397 Descending Philadelphia TRACON
Sun 12:51:20 PM 40.2333 -74.8667 90° East 88 101 1,000 -350 Descending Philadelphia TRACON
Sun 12:52:20 PM 40.2500 -74.8333 57° Northeast 90 104 600 -400 Descending Philadelphia TRACON
Sun 12:54:00 PM 40.2667 -74.8000 53° Northeast  Level FlightAware Approximate

Login

Don't have an account? Register now (free) for customized features, flight alerts, and more!